Flight Number: EUR2442 Duration: 6:00
Departure: Dakar Int'l Airport (GOOY) at 08:00 Distance: 2481 Nm
Arrival: Munich Int'l (EDDM) at 14:00 Equipment: B777

Weather Information
Dakar / Yoff, Senegal (GOOY) 14-44N 017-30W 24M Aug 19, 2018 - 05:00 AM EDT / 2018.08.19 0900 UTC
Wind: from the NNW (340 degrees) at 9 MPH (8 KT):0
Visibility: greater than 7 mile(s):0
Sky conditions: partly cloudy Temperature: 80 F (27 C) Dew Point: 71 F (22 C) Relative Humidity: 74% Pressure (altimeter): 29.91 in. Hg (1013 hPa)
ob: GOOY 190900Z 34008KT 9999 SCT013 27/22 Q1013 cycle: 9
Sunrise: 06:58 Sunset: 19:27 (UTC)

Munchen, Germany (EDDM) 48-21N 011-47E Aug 19, 2018 - 04:50 AM EDT / 2018.08.19 0850 UTC
Wind: Variable at 3 MPH (3 KT):0
Visibility: greater than 7 mile(s):0 Temperature: 75 F (24 C) Dew Point: 59 F (15 C) Relative Humidity: 57% Pressure (altimeter): 30.18 in. Hg (1022 hPa)
ob: EDDM 190850Z VRB03KT CAVOK 24/15 Q1022 NOSIG cycle: 9
Sunrise: 04:16 Sunset: 18:15 (UTC)

TAF:2018/08/19 06:27 TAF EDDM 190500Z 1906/2012 VRB03KT CAVOK TEMPO 1906/1909 26005KT TEMPO 1911/1916 02005KT BECMG 1920/1922 25005KT

Previous Pireps for this route
Date Aircraft Flight time Fuel used Landing rate On time
2016-03-10B77706.11109136-84Yes
2016-04-10B77705.05106121-224Yes
(pireps marked green are flown by you)

Route map